createdAt,value
2018-09-06T03:38:01.298Z,0.1
2018-09-06T03:40:01.094Z,0.2
2018-09-06T03:41:01.068Z,0.3
2018-09-06T03:43:01.205Z,0.4
2018-09-06T03:44:01.092Z,0.5
2018-09-06T03:45:01.066Z,0.5
2018-09-06T03:46:01.101Z,0.7
2018-09-06T03:48:01.288Z,0.8
2018-09-06T03:49:01.080Z,1.0
2018-09-06T03:50:01.047Z,1.2
2018-09-06T03:51:01.052Z,1.5
2018-09-06T03:52:01.071Z,1.7
2018-09-06T03:53:01.288Z,2.1
2018-09-06T03:54:01.081Z,2.4
2018-09-06T03:55:01.053Z,2.8
2018-09-06T03:56:01.147Z,3.3
2018-09-06T03:57:01.048Z,3.9
2018-09-06T03:58:01.194Z,4.5
2018-09-06T03:59:01.050Z,5.3
2018-09-06T04:00:01.047Z,6.3
2018-09-06T04:01:01.083Z,7.5
2018-09-06T04:02:01.052Z,8.9
2018-09-06T04:03:01.319Z,10.5
2018-09-06T04:04:01.086Z,12.3
2018-09-06T04:05:01.082Z,14.6
2018-09-06T04:06:01.057Z,17.3
2018-09-06T04:07:01.151Z,20.6
2018-09-06T04:08:01.234Z,24.5
2018-09-06T04:09:01.054Z,29.1
2018-09-06T04:10:01.089Z,34.5
2018-09-06T04:11:01.091Z,40.9
2018-09-06T04:12:01.056Z,48.4
2018-09-06T04:13:01.291Z,57.3
2018-09-06T04:14:01.062Z,67.6
2018-09-06T04:15:01.067Z,79.5
2018-09-06T04:16:01.054Z,93.4
2018-09-06T04:17:01.055Z,109.4
2018-09-06T04:18:01.258Z,127.9
2018-09-06T04:19:01.056Z,149.0
2018-09-06T04:20:01.075Z,173.2
2018-09-06T04:21:01.060Z,200.7
2018-09-06T04:22:01.091Z,231.8
2018-09-06T04:23:01.261Z,267.0
2018-09-06T04:24:01.058Z,306.6
2018-09-06T04:25:01.062Z,351.0
2018-09-06T04:26:01.109Z,400.6
2018-09-06T04:27:01.091Z,455.8
2018-09-06T04:28:01.273Z,517.1
2018-09-06T04:29:01.059Z,584.8
2018-09-06T04:30:01.058Z,659.5
2018-09-06T04:31:01.062Z,741.4
2018-09-06T04:32:01.059Z,831.0
2018-09-06T04:33:01.295Z,928.5
2018-09-06T04:34:01.061Z,1034.4
2018-09-06T04:35:01.062Z,1148.7
2018-09-06T04:36:01.150Z,1271.8
2018-09-06T04:37:01.099Z,1404.2
2018-09-06T04:38:01.276Z,1545.9
2018-09-06T04:39:01.067Z,1697.2
2018-09-06T04:40:01.107Z,1858.1
2018-09-06T04:41:01.097Z,2028.5
2018-09-06T04:42:01.069Z,2208.7
2018-09-06T04:43:01.251Z,2398.5
2018-09-06T04:44:01.061Z,2597.6
2018-09-06T04:45:01.063Z,2806.1
2018-09-06T04:46:01.097Z,3023.7
2018-09-06T04:47:01.095Z,3250.7
2018-09-06T04:48:01.238Z,3487.2
2018-09-06T04:49:01.103Z,3733.1
2018-09-06T04:51:01.088Z,4009.5
2018-09-06T04:52:01.048Z,4295.1
2018-09-06T04:53:01.270Z,4589.7
2018-09-06T04:54:01.080Z,4894.1
2018-09-06T04:55:01.050Z,5208.2
2018-09-06T04:56:01.081Z,5530.5
2018-09-06T04:57:01.054Z,5861.8
2018-09-06T04:58:01.248Z,6203.7
2018-09-06T04:59:01.053Z,6560.3
2018-09-06T05:00:01.088Z,6928.9
2018-09-06T05:01:01.093Z,7305.3
2018-09-06T05:02:01.091Z,7693.4
2018-09-06T05:03:01.285Z,8091.9
2018-09-06T05:04:01.086Z,8499.4
2018-09-06T05:05:01.090Z,8914.1
2018-09-06T05:06:01.080Z,9314.9
2018-09-06T05:07:01.087Z,9722.2
2018-09-06T05:08:01.234Z,10137.8
2018-09-06T05:09:01.090Z,10558.6
2018-09-06T05:10:01.056Z,10982.7
2018-09-06T05:11:01.114Z,11414.7
2018-09-06T05:12:01.055Z,11852.3
2018-09-06T05:13:01.229Z,12292.7
2018-09-06T05:14:01.087Z,12727.5
2018-09-06T05:15:01.090Z,13159.4
2018-09-06T05:16:01.112Z,13591.2
2018-09-06T05:17:01.090Z,14016.7
2018-09-06T05:18:01.203Z,14441.3
2018-09-06T05:19:01.095Z,14863.9
2018-09-06T05:20:01.058Z,15286.3
2018-09-06T05:21:01.055Z,15710.1
2018-09-06T05:22:01.093Z,16129.0
2018-09-06T05:23:01.240Z,16549.5
2018-09-06T05:24:01.094Z,16966.7
2018-09-06T05:25:01.060Z,17383.5
2018-09-06T05:26:01.095Z,17797.3
2018-09-06T05:27:01.091Z,18204.9
2018-09-06T05:28:01.259Z,18603.9
2018-09-06T05:29:01.092Z,18995.1
2018-09-06T05:30:01.091Z,19382.7
2018-09-06T05:31:01.097Z,19764.5
2018-09-06T05:32:01.098Z,20146.4
2018-09-06T05:33:01.265Z,20526.1
2018-09-06T05:34:01.092Z,20905.7
2018-09-06T05:35:01.130Z,21283.4
2018-09-06T05:36:01.080Z,21663.7
2018-09-06T05:37:01.092Z,22056.6
2018-09-06T05:38:01.238Z,22445.7
2018-09-06T05:39:01.096Z,22828.9
2018-09-06T05:40:01.098Z,23221.1
2018-09-06T05:41:01.094Z,23624.5
2018-09-06T05:42:01.066Z,24048.2
2018-09-06T05:43:01.203Z,24478.8
2018-09-06T05:44:01.100Z,24928.1
2018-09-06T05:45:01.062Z,25384.4
2018-09-06T05:46:01.098Z,25858.9
2018-09-06T05:47:01.095Z,26337.1
2018-09-06T05:48:01.213Z,26802.6
2018-09-06T05:49:01.066Z,27256.7
2018-09-06T05:51:01.055Z,27740.3
2018-09-06T05:52:01.088Z,28207.1
2018-09-06T05:53:01.194Z,28690.7
2018-09-06T05:54:01.052Z,29214.3
2018-09-06T05:55:01.092Z,29797.5
2018-09-06T05:56:01.085Z,30361.9
2018-09-06T05:57:01.050Z,30884.9
2018-09-06T05:58:01.325Z,31365.5
2018-09-06T05:59:01.069Z,31828.3
2018-09-06T06:00:01.133Z,32296.2
2018-09-06T06:01:01.087Z,32742.2
2018-09-06T06:02:01.061Z,33197.8
2018-09-06T06:03:01.199Z,33679.1
2018-09-06T06:04:01.056Z,34157.3
2018-09-06T06:05:01.057Z,34637.2
2018-09-06T06:06:01.055Z,35073.1
2018-09-06T06:07:01.055Z,35512.8
2018-09-06T06:08:01.229Z,35900.7
2018-09-06T06:09:01.058Z,36258.7
2018-09-06T06:10:01.059Z,36577.1
2018-09-06T06:11:01.061Z,36938.0
2018-09-06T06:12:01.092Z,37309.9
2018-09-06T06:13:01.243Z,37686.6
2018-09-06T06:14:01.096Z,38108.2
2018-09-06T06:15:01.060Z,38649.6
2018-09-06T06:16:01.163Z,39304.6
2018-09-06T06:17:01.058Z,40244.7
2018-09-06T06:18:01.199Z,41679.2
2018-09-06T06:19:01.092Z,43101.8
2018-09-06T06:20:01.132Z,44400.9
2018-09-06T06:21:01.060Z,45775.9
2018-09-06T06:22:01.101Z,47277.0
2018-09-06T06:23:01.206Z,48756.6
2018-09-06T06:24:01.094Z,50390.3
2018-09-06T06:25:01.060Z,52052.8
2018-09-06T06:26:01.112Z,53532.9
2018-09-06T06:27:01.097Z,55224.4
2018-09-06T06:28:01.211Z,56886.5
2018-09-06T06:30:01.084Z,58515.7
2018-09-06T06:31:01.082Z,59573.1
2018-09-06T06:32:01.083Z,60878.0
2018-09-06T06:33:01.051Z,61890.7
2018-09-06T06:34:01.353Z,62355.6
2018-09-06T06:35:01.054Z,62444.1
2018-09-06T06:36:01.058Z,63016.3
2018-09-06T06:37:01.085Z,63500.9
2018-09-06T06:38:01.085Z,63840.1
2018-09-06T06:39:01.193Z,64199.7
2018-09-06T06:40:01.124Z,64366.5
2018-09-06T06:41:01.095Z,64283.9
2018-09-06T06:42:01.085Z,63791.4
2018-09-06T06:44:01.190Z,63813.7
2018-09-06T06:45:01.092Z,63813.7
2018-09-06T06:46:01.088Z,64223.5
2018-09-06T06:47:01.084Z,64264.1
2018-09-06T06:50:01.229Z,64641.2
2018-09-06T06:56:01.327Z,64821.9
2018-09-06T06:57:01.061Z,65535.0
2018-09-06T07:00:01.092Z,65535.0
2018-09-06T07:15:01.213Z,65535.0
2018-09-06T07:30:01.384Z,65535.0
2018-09-06T07:45:01.230Z,65535.0
2018-09-06T08:00:01.342Z,65535.0
2018-09-06T08:15:01.306Z,65535.0
2018-09-06T08:30:01.327Z,65535.0
2018-09-06T08:45:01.238Z,65535.0
2018-09-06T09:00:01.366Z,65535.0
2018-09-06T09:15:01.087Z,65535.0
2018-09-06T09:30:01.098Z,65535.0
2018-09-06T09:45:01.302Z,65535.0
2018-09-06T10:00:01.301Z,65535.0
2018-09-06T10:15:01.290Z,65535.0
2018-09-06T10:30:01.092Z,65535.0
2018-09-06T10:45:01.097Z,65535.0
2018-09-06T11:00:01.094Z,65535.0
2018-09-06T11:15:01.264Z,65535.0
2018-09-06T11:30:01.094Z,65535.0
2018-09-06T11:45:01.098Z,65535.0
2018-09-06T12:00:01.058Z,65535.0
2018-09-06T12:15:01.090Z,65535.0
2018-09-06T12:30:01.091Z,65535.0
2018-09-06T12:45:01.094Z,65535.0
2018-09-06T13:00:01.086Z,65535.0
2018-09-06T13:15:01.095Z,65535.0
2018-09-06T13:30:01.060Z,65535.0
2018-09-06T13:45:01.091Z,65535.0
2018-09-06T14:00:01.410Z,65535.0
2018-09-06T14:15:01.113Z,65535.0
2018-09-06T14:30:01.080Z,65535.0
2018-09-06T14:45:03.254Z,65535.0
2018-09-06T15:01:01.251Z,65535.0
2018-09-06T15:15:01.201Z,65535.0
2018-09-06T15:30:01.280Z,65535.0
2018-09-06T15:45:01.046Z,65535.0
2018-09-06T16:00:01.082Z,65535.0
2018-09-06T16:09:01.255Z,65494.7
2018-09-06T16:10:01.082Z,65391.9
2018-09-06T16:11:01.050Z,65240.5
2018-09-06T16:12:01.088Z,65048.9
2018-09-06T16:13:01.052Z,64829.4
2018-09-06T16:14:01.196Z,64583.2
2018-09-06T16:15:01.094Z,64326.4
2018-09-06T16:16:01.117Z,64043.6
2018-09-06T16:17:01.085Z,63715.4
2018-09-06T16:18:01.085Z,63335.7
2018-09-06T16:19:01.201Z,62910.8
2018-09-06T16:20:01.084Z,62454.0
2018-09-06T16:21:01.089Z,61951.3
2018-09-06T16:22:01.056Z,61410.0
2018-09-06T16:23:01.091Z,60826.7
2018-09-06T16:24:01.241Z,60247.5
2018-09-06T16:25:01.090Z,59686.9
2018-09-06T16:26:01.060Z,59124.3
2018-09-06T16:27:01.088Z,58538.5
2018-09-06T16:28:01.086Z,57920.7
2018-09-06T16:29:01.222Z,57285.3
2018-09-06T16:30:01.092Z,56617.4
2018-09-06T16:31:01.094Z,55928.4
2018-09-06T16:32:01.094Z,55228.9
2018-09-06T16:33:01.057Z,54508.7
2018-09-06T16:34:01.254Z,53766.7
2018-09-06T16:35:01.090Z,52991.1
2018-09-06T16:36:01.059Z,52174.5
2018-09-06T16:37:06.103Z,51312.5
2018-09-06T16:38:01.107Z,50430.5
2018-09-06T16:39:01.209Z,49514.0
2018-09-06T16:40:01.099Z,48550.7
2018-09-06T16:41:01.116Z,47536.6
2018-09-06T16:42:06.094Z,46511.1
2018-09-06T16:43:01.094Z,45487.6
2018-09-06T16:44:01.203Z,44454.7
2018-09-06T16:45:01.095Z,43401.2
2018-09-06T16:46:01.094Z,42330.7
2018-09-06T16:47:01.118Z,41250.9
2018-09-06T16:48:01.061Z,40178.7
2018-09-06T16:49:01.235Z,39120.2
2018-09-06T16:50:01.096Z,38075.5
2018-09-06T16:51:01.118Z,37065.7
2018-09-06T16:52:06.098Z,36078.7
2018-09-06T16:54:01.248Z,35042.4
2018-09-06T16:55:01.076Z,34032.5
2018-09-06T16:56:01.079Z,33068.9
2018-09-06T16:57:01.074Z,32164.5
2018-09-06T16:58:01.078Z,31302.0
2018-09-06T16:59:01.190Z,30472.2
2018-09-06T17:00:01.046Z,29686.9
2018-09-06T17:01:01.101Z,28960.6
2018-09-06T17:02:01.048Z,28285.1
2018-09-06T17:03:01.083Z,27653.9
2018-09-06T17:04:01.262Z,27064.7
2018-09-06T17:05:01.081Z,26498.7
2018-09-06T17:06:01.074Z,25954.9
2018-09-06T17:07:01.134Z,25435.0
2018-09-06T17:08:01.084Z,24949.6
2018-09-06T17:09:01.292Z,24552.9
2018-09-06T17:10:01.083Z,24176.5
2018-09-06T17:11:01.082Z,23821.1
2018-09-06T17:12:01.087Z,23485.7
2018-09-06T17:13:01.057Z,23162.2
2018-09-06T17:14:01.316Z,22840.9
2018-09-06T17:15:01.053Z,22508.4
2018-09-06T17:16:01.050Z,22156.1
2018-09-06T17:17:01.085Z,21794.5
2018-09-06T17:18:01.156Z,21430.3
2018-09-06T17:19:01.199Z,21065.3
2018-09-06T17:20:01.054Z,20704.9
2018-09-06T17:21:01.086Z,20347.9
2018-09-06T17:22:01.055Z,19992.9
2018-09-06T17:23:01.084Z,19639.9
2018-09-06T17:24:01.251Z,19284.3
2018-09-06T17:25:01.089Z,18926.5
2018-09-06T17:26:01.093Z,18567.0
2018-09-06T17:27:01.088Z,18197.7
2018-09-06T17:28:01.093Z,17822.9
2018-09-06T17:29:01.252Z,17441.5
2018-09-06T17:30:01.054Z,17049.7
2018-09-06T17:31:01.086Z,16653.0
2018-09-06T17:32:01.055Z,16248.9
2018-09-06T17:33:01.158Z,15840.8
2018-09-06T17:34:01.261Z,15427.3
2018-09-06T17:35:01.090Z,15011.3
2018-09-06T17:36:01.056Z,14593.1
2018-09-06T17:37:01.089Z,14172.9
2018-09-06T17:38:01.088Z,13749.5
2018-09-06T17:39:01.382Z,13323.5
2018-09-06T17:40:01.076Z,12894.4
2018-09-06T17:41:01.093Z,12461.2
2018-09-06T17:42:01.060Z,12028.7
2018-09-06T17:43:01.121Z,11591.2
2018-09-06T17:44:01.202Z,11149.2
2018-09-06T17:45:01.092Z,10704.8
2018-09-06T17:46:01.059Z,10257.6
2018-09-06T17:47:01.095Z,9806.5
2018-09-06T17:48:01.096Z,9349.6
2018-09-06T17:49:01.215Z,8890.8
2018-09-06T17:50:01.096Z,8429.1
2018-09-06T17:51:01.063Z,7968.1
2018-09-06T17:53:01.047Z,7483.8
2018-09-06T17:54:01.190Z,7005.3
2018-09-06T17:55:01.079Z,6534.7
2018-09-06T17:56:01.092Z,6074.6
2018-09-06T17:57:01.079Z,5627.7
2018-09-06T17:58:01.079Z,5197.3
2018-09-06T17:59:01.221Z,4784.7
2018-09-06T18:00:01.094Z,4393.3
2018-09-06T18:01:01.085Z,4023.6
2018-09-06T18:02:01.052Z,3675.1
2018-09-06T18:03:01.051Z,3350.4
2018-09-06T18:04:01.223Z,3049.7
2018-09-06T18:05:01.081Z,2771.3
2018-09-06T18:06:01.050Z,2515.5
2018-09-06T18:07:01.086Z,2280.1
2018-09-06T18:08:01.051Z,2088.6
2018-09-06T18:09:01.220Z,1912.7
2018-09-06T18:10:01.093Z,1751.0
2018-09-06T18:11:01.082Z,1601.7
2018-09-06T18:12:01.063Z,1463.5
2018-09-06T18:13:01.131Z,1335.1
2018-09-06T18:14:01.226Z,1215.7
2018-09-06T18:15:01.057Z,1104.7
2018-09-06T18:16:01.088Z,1001.7
2018-09-06T18:17:01.091Z,906.2
2018-09-06T18:18:01.087Z,817.5
2018-09-06T18:19:01.365Z,735.3
2018-09-06T18:20:01.096Z,659.1
2018-09-06T18:21:01.053Z,588.6
2018-09-06T18:22:01.093Z,523.9
2018-09-06T18:23:01.056Z,464.5
2018-09-06T18:24:01.230Z,410.3
2018-09-06T18:25:01.091Z,360.9
2018-09-06T18:26:01.056Z,316.1
2018-09-06T18:27:01.090Z,275.7
2018-09-06T18:28:01.097Z,239.5
2018-09-06T18:29:01.252Z,207.3
2018-09-06T18:30:01.058Z,178.8
2018-09-06T18:31:01.094Z,153.7
2018-09-06T18:32:01.207Z,131.6
2018-09-06T18:33:01.059Z,112.4
2018-09-06T18:34:01.254Z,95.7
2018-09-06T18:35:01.094Z,81.3
2018-09-06T18:36:01.090Z,68.9
2018-09-06T18:37:01.090Z,58.3
2018-09-06T18:38:01.058Z,49.3
2018-09-06T18:39:01.234Z,41.6
2018-09-06T18:40:01.094Z,35.1
2018-09-06T18:41:01.094Z,29.6
2018-09-06T18:42:01.064Z,25.0
2018-09-06T18:43:01.071Z,21.1
2018-09-06T18:44:01.293Z,17.7
2018-09-06T18:45:01.098Z,14.9
2018-09-06T18:46:01.090Z,12.6
2018-09-06T18:47:01.092Z,10.7
2018-09-06T18:48:01.092Z,9.0
2018-09-06T18:49:01.233Z,7.6
2018-09-06T18:50:01.062Z,6.5
2018-09-06T18:51:01.065Z,5.5
2018-09-06T18:52:01.061Z,4.6
2018-09-06T18:53:01.065Z,3.9
2018-09-06T18:54:01.239Z,3.3
2018-09-06T18:55:01.100Z,2.8
2018-09-06T18:56:01.062Z,2.4
2018-09-06T18:57:01.103Z,2.1
2018-09-06T18:58:01.101Z,1.7
2018-09-06T19:00:01.193Z,1.5
2018-09-06T19:01:01.048Z,1.3
2018-09-06T19:02:01.232Z,1.1
2018-09-06T19:03:01.079Z,0.9
2018-09-06T19:04:01.081Z,0.7
2018-09-06T19:05:01.225Z,0.6
2018-09-06T19:06:01.048Z,0.5
2018-09-06T19:07:01.050Z,0.4
2018-09-06T19:08:01.050Z,0.3
2018-09-06T19:10:01.196Z,0.2
2018-09-06T19:11:01.052Z,0.1
